Aviation Digital Data Service (ADDS)

Output produced by METARs form (2039 UTC 27 November 2014)
found at http://aviationweather.gov/adds/metars/
 
KALB 271758Z 2718/2818 35005KT P6SM VCSH SCT016 OVC035 
     TEMPO 2718/2721 3SM -SN BKN016 OVC030 
     FM272100 33005KT 6SM -SN SCT012 OVC030 
     TEMPO 2721/2801 2SM -SN BR OVC012 
     FM280400 32003KT P6SM VCSH OVC035 
     FM281400 31010G15KT P6SM BKN045